sensor_id;sensor_type;location;lat;lon;timestamp;temperature;humidity
7163;DHT22;3623;47.098;15.446;2023-02-01T00:02:06;2.00;99.50
7163;DHT22;3623;47.098;15.446;2023-02-01T00:04:33;2.40;99.90
7163;DHT22;3623;47.098;15.446;2023-02-01T00:07:00;2.80;99.70
7163;DHT22;3623;47.098;15.446;2023-02-01T00:09:29;2.90;99.60
7163;DHT22;3623;47.098;15.446;2023-02-01T00:12:06;2.60;99.20
7163;DHT22;3623;47.098;15.446;2023-02-01T00:14:33;2.40;99.80
7163;DHT22;3623;47.098;15.446;2023-02-01T00:17:04;2.20;99.90
7163;DHT22;3623;47.098;15.446;2023-02-01T00:19:32;2.40;99.90
7163;DHT22;3623;47.098;15.446;2023-02-01T00:22:00;2.60;99.90
7163;DHT22;3623;47.098;15.446;2023-02-01T00:24:29;2.10;99.90
7163;DHT22;3623;47.098;15.446;2023-02-01T00:27:16;1.40;99.90
7163;DHT22;3623;47.098;15.446;2023-02-01T00:30:03;1.40;99.90
7163;DHT22;3623;47.098;15.446;2023-02-01T00:32:41;1.10;99.90
7163;DHT22;3623;47.098;15.446;2023-02-01T00:35:09;0.90;99.90
7163;DHT22;3623;47.098;15.446;2023-02-01T00:37:36;0.90;99.90
7163;DHT22;3623;47.098;15.446;2023-02-01T00:40:10;1.10;99.90
7163;DHT22;3623;47.098;15.446;2023-02-01T00:42:37;1.10;99.90
7163;DHT22;3623;47.098;15.446;2023-02-01T00:45:11;1.30;99.90
7163;DHT22;3623;47.098;15.446;2023-02-01T00:47:39;1.50;99.90
7163;DHT22;3623;47.098;15.446;2023-02-01T00:50:10;1.70;99.90
7163;DHT22;3623;47.098;15.446;2023-02-01T00:52:47;2.00;99.90
7163;DHT22;3623;47.098;15.446;2023-02-01T00:55:17;2.70;99.90
7163;DHT22;3623;47.098;15.446;2023-02-01T00:57:45;3.00;99.90
7163;DHT22;3623;47.098;15.446;2023-02-01T01:00:30;3.30;99.90
7163;DHT22;3623;47.098;15.446;2023-02-01T01:02:58;3.30;99.90
7163;DHT22;3623;47.098;15.446;2023-02-01T01:05:25;3.40;99.90
7163;DHT22;3623;47.098;15.446;2023-02-01T01:07:55;3.60;99.90
7163;DHT22;3623;47.098;15.446;2023-02-01T01:10:30;3.30;99.90
7163;DHT22;3623;47.098;15.446;2023-02-01T01:12:57;2.70;99.90
7163;DHT22;3623;47.098;15.446;2023-02-01T01:15:24;2.30;99.90
7163;DHT22;3623;47.098;15.446;2023-02-01T01:17:52;2.20;99.90
7163;DHT22;3623;47.098;15.446;2023-02-01T01:20:26;2.00;99.90
7163;DHT22;3623;47.098;15.446;2023-02-01T01:22:53;1.80;99.90
7163;DHT22;3623;47.098;15.446;2023-02-01T01:25:20;1.60;99.90
7163;DHT22;3623;47.098;15.446;2023-02-01T01:27:49;1.60;99.90
7163;DHT22;3623;47.098;15.446;2023-02-01T01:30:31;1.10;99.90
7163;DHT22;3623;47.098;15.446;2023-02-01T01:32:58;0.90;99.90
7163;DHT22;3623;47.098;15.446;2023-02-01T01:35:25;0.90;99.90
7163;DHT22;3623;47.098;15.446;2023-02-01T01:37:52;0.80;99.90
7163;DHT22;3623;47.098;15.446;2023-02-01T01:40:22;0.80;99.90
7163;DHT22;3623;47.098;15.446;2023-02-01T01:42:51;0.80;99.90
7163;DHT22;3623;47.098;15.446;2023-02-01T01:45:24;0.80;99.90
7163;DHT22;3623;47.098;15.446;2023-02-01T01:47:53;1.20;99.90
7163;DHT22;3623;47.098;15.446;2023-02-01T01:50:25;1.30;99.80
7163;DHT22;3623;47.098;15.446;2023-02-01T01:52:55;1.20;99.90
7163;DHT22;3623;47.098;15.446;2023-02-01T01:55:25;1.10;99.90
7163;DHT22;3623;47.098;15.446;2023-02-01T01:57:57;1.10;99.90
7163;DHT22;3623;47.098;15.446;2023-02-01T02:00:26;1.20;99.90
7163;DHT22;3623;47.098;15.446;2023-02-01T02:02:58;1.60;97.50
7163;DHT22;3623;47.098;15.446;2023-02-01T02:05:26;2.30;96.50
7163;DHT22;3623;47.098;15.446;2023-02-01T02:07:58;2.30;96.50
7163;DHT22;3623;47.098;15.446;2023-02-01T02:10:45;2.60;97.10
7163;DHT22;3623;47.098;15.446;2023-02-01T02:13:32;2.10;98.30
7163;DHT22;3623;47.098;15.446;2023-02-01T02:16:11;1.90;99.70
7163;DHT22;3623;47.098;15.446;2023-02-01T02:18:48;1.40;99.90
7163;DHT22;3623;47.098;15.446;2023-02-01T02:21:43;1.30;99.90
7163;DHT22;3623;47.098;15.446;2023-02-01T02:24:39;1.30;99.90
7163;DHT22;3623;47.098;15.446;2023-02-01T02:27:17;1.20;99.90
7163;DHT22;3623;47.098;15.446;2023-02-01T02:36:10;0.60;99.90
7163;DHT22;3623;47.098;15.446;2023-02-01T02:38:45;0.40;99.90
7163;DHT22;3623;47.098;15.446;2023-02-01T02:41:29;0.30;99.90
7163;DHT22;3623;47.098;15.446;2023-02-01T02:44:23;0.30;99.90
7163;DHT22;3623;47.098;15.446;2023-02-01T02:47:26;0.30;99.90
7163;DHT22;3623;47.098;15.446;2023-02-01T02:50:13;0.20;99.90
7163;DHT22;3623;47.098;15.446;2023-02-01T02:56:03;0.50;99.90
7163;DHT22;3623;47.098;15.446;2023-02-01T02:59:12;0.50;99.90
7163;DHT22;3623;47.098;15.446;2023-02-01T03:02:06;0.40;99.90
7163;DHT22;3623;47.098;15.446;2023-02-01T03:04:52;0.20;99.90
7163;DHT22;3623;47.098;15.446;2023-02-01T03:13:31;0.40;99.90
7163;DHT22;3623;47.098;15.446;2023-02-01T03:16:03;0.50;99.90
7163;DHT22;3623;47.098;15.446;2023-02-01T03:18:37;0.60;99.90
7163;DHT22;3623;47.098;15.446;2023-02-01T03:21:10;0.70;99.90
7163;DHT22;3623;47.098;15.446;2023-02-01T03:23:39;0.80;99.90
7163;DHT22;3623;47.098;15.446;2023-02-01T03:26:10;0.80;99.90
7163;DHT22;3623;47.098;15.446;2023-02-01T03:28:41;1.50;99.90
7163;DHT22;3623;47.098;15.446;2023-02-01T03:31:10;1.70;99.90
7163;DHT22;3623;47.098;15.446;2023-02-01T03:33:39;2.00;99.90
7163;DHT22;3623;47.098;15.446;2023-02-01T03:36:17;2.20;99.90
7163;DHT22;3623;47.098;15.446;2023-02-01T03:38:50;2.30;99.90
7163;DHT22;3623;47.098;15.446;2023-02-01T03:41:42;2.00;99.30
7163;DHT22;3623;47.098;15.446;2023-02-01T03:44:13;2.10;99.90
7163;DHT22;3623;47.098;15.446;2023-02-01T03:46:47;1.80;99.40
7163;DHT22;3623;47.098;15.446;2023-02-01T03:49:22;1.80;98.80
7163;DHT22;3623;47.098;15.446;2023-02-01T03:51:58;1.90;99.50
7163;DHT22;3623;47.098;15.446;2023-02-01T03:54:27;2.20;99.90
7163;DHT22;3623;47.098;15.446;2023-02-01T03:56:59;2.10;98.90
7163;DHT22;3623;47.098;15.446;2023-02-01T03:59:28;2.10;98.70
7163;DHT22;3623;47.098;15.446;2023-02-01T04:01:56;2.20;98.20
7163;DHT22;3623;47.098;15.446;2023-02-01T04:04:23;2.20;98.80
7163;DHT22;3623;47.098;15.446;2023-02-01T04:06:51;2.00;99.30
7163;DHT22;3623;47.098;15.446;2023-02-01T04:09:18;1.80;99.70
7163;DHT22;3623;47.098;15.446;2023-02-01T04:11:46;1.00;99.90
7163;DHT22;3623;47.098;15.446;2023-02-01T04:14:15;0.50;99.90
7163;DHT22;3623;47.098;15.446;2023-02-01T04:16:42;0.20;99.90
7163;DHT22;3623;47.098;15.446;2023-02-01T04:19:10;0.10;99.90
7163;DHT22;3623;47.098;15.446;2023-02-01T04:21:38;0.20;99.90
7163;DHT22;3623;47.098;15.446;2023-02-01T04:24:06;0.10;99.90
7163;DHT22;3623;47.098;15.446;2023-02-01T04:26:34;0.10;99.90
7163;DHT22;3623;47.098;15.446;2023-02-01T04:29:01;0.40;99.90
7163;DHT22;3623;47.098;15.446;2023-02-01T04:31:38;0.20;99.90
7163;DHT22;3623;47.098;15.446;2023-02-01T04:34:05;0.30;99.90
7163;DHT22;3623;47.098;15.446;2023-02-01T04:36:32;0.40;99.90
7163;DHT22;3623;47.098;15.446;2023-02-01T04:39:00;0.40;99.90
7163;DHT22;3623;47.098;15.446;2023-02-01T04:41:27;0.40;99.90
7163;DHT22;3623;47.098;15.446;2023-02-01T04:43:54;0.40;99.90
7163;DHT22;3623;47.098;15.446;2023-02-01T04:46:22;0.30;99.90
7163;DHT22;3623;47.098;15.446;2023-02-01T04:48:50;0.50;99.90
7163;DHT22;3623;47.098;15.446;2023-02-01T04:51:18;0.60;99.90
7163;DHT22;3623;47.098;15.446;2023-02-01T04:53:45;0.60;99.90
7163;DHT22;3623;47.098;15.446;2023-02-01T04:56:12;0.70;99.90
7163;DHT22;3623;47.098;15.446;2023-02-01T04:58:39;0.40;99.90
7163;DHT22;3623;47.098;15.446;2023-02-01T05:01:07;0.30;99.90
7163;DHT22;3623;47.098;15.446;2023-02-01T05:03:37;0.20;99.90
7163;DHT22;3623;47.098;15.446;2023-02-01T05:06:08;0.40;99.90
7163;DHT22;3623;47.098;15.446;2023-02-01T05:08:36;0.30;99.90
7163;DHT22;3623;47.098;15.446;2023-02-01T05:11:03;0.40;99.90
7163;DHT22;3623;47.098;15.446;2023-02-01T05:13:30;0.40;99.90
7163;DHT22;3623;47.098;15.446;2023-02-01T05:16:14;0.40;99.90
7163;DHT22;3623;47.098;15.446;2023-02-01T05:18:42;0.40;99.90
7163;DHT22;3623;47.098;15.446;2023-02-01T05:21:20;0.30;99.90
7163;DHT22;3623;47.098;15.446;2023-02-01T05:23:47;0.40;99.90
7163;DHT22;3623;47.098;15.446;2023-02-01T05:26:31;0.50;99.90
7163;DHT22;3623;47.098;15.446;2023-02-01T05:28:59;0.60;99.90
7163;DHT22;3623;47.098;15.446;2023-02-01T05:31:27;0.20;99.90
7163;DHT22;3623;47.098;15.446;2023-02-01T05:33:54;-0.10;99.90
7163;DHT22;3623;47.098;15.446;2023-02-01T05:36:23;-0.30;99.90
7163;DHT22;3623;47.098;15.446;2023-02-01T05:38:50;-0.20;99.90
7163;DHT22;3623;47.098;15.446;2023-02-01T05:41:32;0.00;99.90
7163;DHT22;3623;47.098;15.446;2023-02-01T05:43:59;-0.10;99.90
7163;DHT22;3623;47.098;15.446;2023-02-01T05:46:26;-0.30;99.90
7163;DHT22;3623;47.098;15.446;2023-02-01T05:48:53;-0.30;99.90
7163;DHT22;3623;47.098;15.446;2023-02-01T05:51:25;0.10;99.90
7163;DHT22;3623;47.098;15.446;2023-02-01T05:53:52;0.20;99.90
7163;DHT22;3623;47.098;15.446;2023-02-01T05:56:19;0.30;99.90
7163;DHT22;3623;47.098;15.446;2023-02-01T05:58:46;0.30;99.90
7163;DHT22;3623;47.098;15.446;2023-02-01T06:01:13;0.40;99.90
7163;DHT22;3623;47.098;15.446;2023-02-01T06:03:41;-0.20;99.90
7163;DHT22;3623;47.098;15.446;2023-02-01T06:06:08;-0.20;99.90
7163;DHT22;3623;47.098;15.446;2023-02-01T06:08:37;0.10;99.90
7163;DHT22;3623;47.098;15.446;2023-02-01T06:11:06;-0.10;99.90
7163;DHT22;3623;47.098;15.446;2023-02-01T06:13:33;-0.20;99.90
7163;DHT22;3623;47.098;15.446;2023-02-01T06:16:01;0.40;99.90
7163;DHT22;3623;47.098;15.446;2023-02-01T06:18:28;0.40;99.90
7163;DHT22;3623;47.098;15.446;2023-02-01T06:20:59;0.30;99.90
7163;DHT22;3623;47.098;15.446;2023-02-01T06:23:27;-0.20;99.90
7163;DHT22;3623;47.098;15.446;2023-02-01T06:26:00;-0.20;99.90
7163;DHT22;3623;47.098;15.446;2023-02-01T06:28:28;0.00;99.90
7163;DHT22;3623;47.098;15.446;2023-02-01T06:30:58;-0.20;99.90
7163;DHT22;3623;47.098;15.446;2023-02-01T06:33:29;0.10;99.90
7163;DHT22;3623;47.098;15.446;2023-02-01T06:35:57;0.20;99.90
7163;DHT22;3623;47.098;15.446;2023-02-01T06:38:24;0.50;99.90
7163;DHT22;3623;47.098;15.446;2023-02-01T06:41:03;0.60;99.90
7163;DHT22;3623;47.098;15.446;2023-02-01T06:43:31;0.30;99.90
7163;DHT22;3623;47.098;15.446;2023-02-01T06:46:03;0.60;99.90
7163;DHT22;3623;47.098;15.446;2023-02-01T06:48:31;0.90;99.90
7163;DHT22;3623;47.098;15.446;2023-02-01T06:51:00;1.10;99.90
7163;DHT22;3623;47.098;15.446;2023-02-01T06:53:27;1.00;99.90
7163;DHT22;3623;47.098;15.446;2023-02-01T06:55:56;1.00;99.90
7163;DHT22;3623;47.098;15.446;2023-02-01T06:58:28;0.90;99.90
7163;DHT22;3623;47.098;15.446;2023-02-01T07:01:05;0.80;99.90
7163;DHT22;3623;47.098;15.446;2023-02-01T07:03:32;0.90;99.90
7163;DHT22;3623;47.098;15.446;2023-02-01T07:06:00;1.00;99.90
7163;DHT22;3623;47.098;15.446;2023-02-01T07:08:28;0.90;99.90
7163;DHT22;3623;47.098;15.446;2023-02-01T07:11:03;0.70;99.90
7163;DHT22;3623;47.098;15.446;2023-02-01T07:13:32;0.60;99.90
7163;DHT22;3623;47.098;15.446;2023-02-01T07:16:00;0.70;99.90
7163;DHT22;3623;47.098;15.446;2023-02-01T07:18:28;1.00;99.90
7163;DHT22;3623;47.098;15.446;2023-02-01T07:21:23;1.10;99.90
7163;DHT22;3623;47.098;15.446;2023-02-01T07:23:51;1.50;99.90
7163;DHT22;3623;47.098;15.446;2023-02-01T07:26:18;1.30;99.90
7163;DHT22;3623;47.098;15.446;2023-02-01T07:28:47;1.20;99.90
7163;DHT22;3623;47.098;15.446;2023-02-01T07:31:16;1.10;99.90
7163;DHT22;3623;47.098;15.446;2023-02-01T07:33:47;1.00;99.90
7163;DHT22;3623;47.098;15.446;2023-02-01T07:36:17;0.90;99.90
7163;DHT22;3623;47.098;15.446;2023-02-01T07:38:45;1.00;99.90
7163;DHT22;3623;47.098;15.446;2023-02-01T07:41:15;0.80;99.90
7163;DHT22;3623;47.098;15.446;2023-02-01T07:43:43;0.60;99.90
7163;DHT22;3623;47.098;15.446;2023-02-01T07:46:12;0.80;99.90
7163;DHT22;3623;47.098;15.446;2023-02-01T07:48:40;0.70;99.90
7163;DHT22;3623;47.098;15.446;2023-02-01T07:51:11;1.00;99.90
7163;DHT22;3623;47.098;15.446;2023-02-01T07:53:39;1.00;99.90
7163;DHT22;3623;47.098;15.446;2023-02-01T07:56:11;1.40;99.90
7163;DHT22;3623;47.098;15.446;2023-02-01T07:58:38;1.60;99.90
7163;DHT22;3623;47.098;15.446;2023-02-01T08:01:18;1.40;99.90
7163;DHT22;3623;47.098;15.446;2023-02-01T08:03:51;1.30;99.90
7163;DHT22;3623;47.098;15.446;2023-02-01T08:06:19;1.30;99.90
7163;DHT22;3623;47.098;15.446;2023-02-01T08:08:46;1.80;99.90
7163;DHT22;3623;47.098;15.446;2023-02-01T08:11:17;1.80;99.90
7163;DHT22;3623;47.098;15.446;2023-02-01T08:13:45;1.80;99.90
7163;DHT22;3623;47.098;15.446;2023-02-01T08:16:13;2.10;99.90
7163;DHT22;3623;47.098;15.446;2023-02-01T08:18:42;1.80;99.90
7163;DHT22;3623;47.098;15.446;2023-02-01T08:21:23;1.80;99.90
7163;DHT22;3623;47.098;15.446;2023-02-01T08:23:51;2.00;99.90
7163;DHT22;3623;47.098;15.446;2023-02-01T08:26:20;1.90;99.90
7163;DHT22;3623;47.098;15.446;2023-02-01T08:28:50;1.70;99.90
7163;DHT22;3623;47.098;15.446;2023-02-01T08:31:25;1.70;99.90
7163;DHT22;3623;47.098;15.446;2023-02-01T08:33:55;1.60;99.90
7163;DHT22;3623;47.098;15.446;2023-02-01T08:36:24;1.80;99.90
7163;DHT22;3623;47.098;15.446;2023-02-01T08:38:52;1.70;99.90
7163;DHT22;3623;47.098;15.446;2023-02-01T08:41:21;2.00;99.90
7163;DHT22;3623;47.098;15.446;2023-02-01T08:43:49;2.30;99.90
7163;DHT22;3623;47.098;15.446;2023-02-01T08:46:16;2.60;99.90
7163;DHT22;3623;47.098;15.446;2023-02-01T08:48:45;2.50;99.90
7163;DHT22;3623;47.098;15.446;2023-02-01T08:51:16;2.50;99.90
7163;DHT22;3623;47.098;15.446;2023-02-01T08:53:44;2.50;99.90
7163;DHT22;3623;47.098;15.446;2023-02-01T08:56:13;2.40;99.90
7163;DHT22;3623;47.098;15.446;2023-02-01T08:58:41;2.40;99.90
7163;DHT22;3623;47.098;15.446;2023-02-01T09:01:13;2.20;99.90
7163;DHT22;3623;47.098;15.446;2023-02-01T09:03:41;2.50;99.90
7163;DHT22;3623;47.098;15.446;2023-02-01T09:06:09;2.80;99.90
7163;DHT22;3623;47.098;15.446;2023-02-01T09:08:40;3.10;99.90
7163;DHT22;3623;47.098;15.446;2023-02-01T09:11:12;3.40;99.90
7163;DHT22;3623;47.098;15.446;2023-02-01T09:13:40;3.50;99.90
7163;DHT22;3623;47.098;15.446;2023-02-01T09:16:07;3.40;99.90
7163;DHT22;3623;47.098;15.446;2023-02-01T09:18:34;3.40;99.90
7163;DHT22;3623;47.098;15.446;2023-02-01T09:21:10;3.40;99.90
7163;DHT22;3623;47.098;15.446;2023-02-01T09:23:39;3.40;99.90
7163;DHT22;3623;47.098;15.446;2023-02-01T09:26:06;3.70;99.90
7163;DHT22;3623;47.098;15.446;2023-02-01T09:28:34;4.30;99.90
7163;DHT22;3623;47.098;15.446;2023-02-01T09:31:09;5.20;99.90
7163;DHT22;3623;47.098;15.446;2023-02-01T09:33:37;6.10;99.90
7163;DHT22;3623;47.098;15.446;2023-02-01T09:36:06;6.70;99.80
7163;DHT22;3623;47.098;15.446;2023-02-01T09:38:33;6.90;99.00
7163;DHT22;3623;47.098;15.446;2023-02-01T09:41:10;6.90;98.60
7163;DHT22;3623;47.098;15.446;2023-02-01T09:43:50;6.80;98.90
7163;DHT22;3623;47.098;15.446;2023-02-01T09:46:23;7.00;98.40
7163;DHT22;3623;47.098;15.446;2023-02-01T09:48:53;6.90;98.00
7163;DHT22;3623;47.098;15.446;2023-02-01T09:51:23;7.10;99.10
7163;DHT22;3623;47.098;15.446;2023-02-01T09:53:58;6.90;97.60
7163;DHT22;3623;47.098;15.446;2023-02-01T09:56:34;7.10;98.40
7163;DHT22;3623;47.098;15.446;2023-02-01T09:59:08;7.20;98.80
7163;DHT22;3623;47.098;15.446;2023-02-01T10:01:37;7.50;98.60
7163;DHT22;3623;47.098;15.446;2023-02-01T10:04:07;7.90;98.40
7163;DHT22;3623;47.098;15.446;2023-02-01T10:06:47;8.10;96.60
7163;DHT22;3623;47.098;15.446;2023-02-01T10:09:30;8.60;97.20
7163;DHT22;3623;47.098;15.446;2023-02-01T10:15:26;8.60;97.10
7163;DHT22;3623;47.098;15.446;2023-02-01T10:18:07;8.90;96.40
7163;DHT22;3623;47.098;15.446;2023-02-01T10:20:48;9.70;96.10
7163;DHT22;3623;47.098;15.446;2023-02-01T10:23:32;10.10;94.80
7163;DHT22;3623;47.098;15.446;2023-02-01T10:26:11;10.30;94.00
7163;DHT22;3623;47.098;15.446;2023-02-01T10:28:39;10.70;94.60
7163;DHT22;3623;47.098;15.446;2023-02-01T10:31:10;11.20;93.90
7163;DHT22;3623;47.098;15.446;2023-02-01T10:33:41;11.50;93.70
7163;DHT22;3623;47.098;15.446;2023-02-01T10:36:15;11.40;93.80
7163;DHT22;3623;47.098;15.446;2023-02-01T10:38:44;11.70;92.70
7163;DHT22;3623;47.098;15.446;2023-02-01T10:41:15;12.00;91.70
7163;DHT22;3623;47.098;15.446;2023-02-01T10:43:42;11.80;92.50
7163;DHT22;3623;47.098;15.446;2023-02-01T10:46:11;11.60;92.00
7163;DHT22;3623;47.098;15.446;2023-02-01T10:48:39;11.50;93.00
7163;DHT22;3623;47.098;15.446;2023-02-01T10:51:14;11.50;93.10
7163;DHT22;3623;47.098;15.446;2023-02-01T10:53:46;11.20;92.00
7163;DHT22;3623;47.098;15.446;2023-02-01T10:56:22;11.20;92.00
7163;DHT22;3623;47.098;15.446;2023-02-01T10:58:49;11.20;92.10
7163;DHT22;3623;47.098;15.446;2023-02-01T11:01:33;11.60;91.20
7163;DHT22;3623;47.098;15.446;2023-02-01T11:04:01;12.30;91.00
7163;DHT22;3623;47.098;15.446;2023-02-01T11:06:31;12.40;89.90
7163;DHT22;3623;47.098;15.446;2023-02-01T11:09:01;12.80;90.20
7163;DHT22;3623;47.098;15.446;2023-02-01T11:11:53;13.20;88.00
7163;DHT22;3623;47.098;15.446;2023-02-01T11:14:27;13.30;87.10
7163;DHT22;3623;47.098;15.446;2023-02-01T11:16:58;12.70;86.30
7163;DHT22;3623;47.098;15.446;2023-02-01T11:19:26;12.30;87.20
7163;DHT22;3623;47.098;15.446;2023-02-01T11:21:54;12.20;87.10
7163;DHT22;3623;47.098;15.446;2023-02-01T11:24:23;12.30;87.00
7163;DHT22;3623;47.098;15.446;2023-02-01T11:26:55;12.90;87.90
7163;DHT22;3623;47.098;15.446;2023-02-01T11:29:24;13.70;86.30
7163;DHT22;3623;47.098;15.446;2023-02-01T11:31:58;14.70;85.60
7163;DHT22;3623;47.098;15.446;2023-02-01T11:34:28;15.20;83.40
7163;DHT22;3623;47.098;15.446;2023-02-01T11:37:00;15.00;83.40
7163;DHT22;3623;47.098;15.446;2023-02-01T11:39:30;15.40;82.90
7163;DHT22;3623;47.098;15.446;2023-02-01T11:42:03;16.10;82.70
7163;DHT22;3623;47.098;15.446;2023-02-01T11:44:34;16.80;79.90
7163;DHT22;3623;47.098;15.446;2023-02-01T11:47:19;17.00;79.00
7163;DHT22;3623;47.098;15.446;2023-02-01T11:49:47;17.80;74.50
7163;DHT22;3623;47.098;15.446;2023-02-01T11:52:21;18.10;76.10
7163;DHT22;3623;47.098;15.446;2023-02-01T11:55:03;18.50;73.40
7163;DHT22;3623;47.098;15.446;2023-02-01T11:57:44;18.30;73.50
7163;DHT22;3623;47.098;15.446;2023-02-01T12:00:44;19.50;71.80
7163;DHT22;3623;47.098;15.446;2023-02-01T12:06:29;20.10;67.10
7163;DHT22;3623;47.098;15.446;2023-02-01T12:09:07;20.10;70.30
7163;DHT22;3623;47.098;15.446;2023-02-01T12:11:44;20.10;66.20
7163;DHT22;3623;47.098;15.446;2023-02-01T12:14:24;18.10;63.40
7163;DHT22;3623;47.098;15.446;2023-02-01T12:17:08;17.00;66.20
7163;DHT22;3623;47.098;15.446;2023-02-01T12:19:55;17.00;62.60
7163;DHT22;3623;47.098;15.446;2023-02-01T12:22:38;16.60;63.20
7163;DHT22;3623;47.098;15.446;2023-02-01T12:25:23;16.60;64.80
7163;DHT22;3623;47.098;15.446;2023-02-01T12:28:29;15.30;62.80
7163;DHT22;3623;47.098;15.446;2023-02-01T12:31:11;15.60;62.20
7163;DHT22;3623;47.098;15.446;2023-02-01T12:33:52;16.10;62.80
7163;DHT22;3623;47.098;15.446;2023-02-01T12:36:25;16.20;63.40
7163;DHT22;3623;47.098;15.446;2023-02-01T12:39:02;17.00;60.90
7163;DHT22;3623;47.098;15.446;2023-02-01T12:41:51;16.10;61.00
7163;DHT22;3623;47.098;15.446;2023-02-01T12:44:32;14.90;59.40
7163;DHT22;3623;47.098;15.446;2023-02-01T12:47:05;14.50;60.40
7163;DHT22;3623;47.098;15.446;2023-02-01T12:49:52;15.00;62.50
7163;DHT22;3623;47.098;15.446;2023-02-01T12:52:26;15.50;60.60
7163;DHT22;3623;47.098;15.446;2023-02-01T12:54:59;16.00;60.90
7163;DHT22;3623;47.098;15.446;2023-02-01T12:57:30;16.20;61.40
7163;DHT22;3623;47.098;15.446;2023-02-01T13:00:05;16.90;59.50
7163;DHT22;3623;47.098;15.446;2023-02-01T13:02:41;16.80;59.10
7163;DHT22;3623;47.098;15.446;2023-02-01T13:05:16;17.20;60.20
7163;DHT22;3623;47.098;15.446;2023-02-01T13:07:48;17.60;60.20
7163;DHT22;3623;47.098;15.446;2023-02-01T13:10:26;17.80;59.20
7163;DHT22;3623;47.098;15.446;2023-02-01T13:12:59;17.40;58.20
7163;DHT22;3623;47.098;15.446;2023-02-01T13:15:31;17.00;60.40
7163;DHT22;3623;47.098;15.446;2023-02-01T13:18:03;16.00;61.10
7163;DHT22;3623;47.098;15.446;2023-02-01T13:20:35;15.20;62.00
7163;DHT22;3623;47.098;15.446;2023-02-01T13:23:07;14.40;62.40
7163;DHT22;3623;47.098;15.446;2023-02-01T13:25:43;14.00;63.20
7163;DHT22;3623;47.098;15.446;2023-02-01T13:28:15;13.00;64.00
7163;DHT22;3623;47.098;15.446;2023-02-01T13:30:57;12.60;65.40
7163;DHT22;3623;47.098;15.446;2023-02-01T13:33:45;12.90;65.30
7163;DHT22;3623;47.098;15.446;2023-02-01T13:36:45;13.00;66.10
7163;DHT22;3623;47.098;15.446;2023-02-01T13:39:34;12.60;66.80
7163;DHT22;3623;47.098;15.446;2023-02-01T13:42:15;11.80;67.00
7163;DHT22;3623;47.098;15.446;2023-02-01T13:44:45;11.10;68.30
7163;DHT22;3623;47.098;15.446;2023-02-01T13:47:22;10.70;69.90
7163;DHT22;3623;47.098;15.446;2023-02-01T13:49:51;10.30;68.20
7163;DHT22;3623;47.098;15.446;2023-02-01T13:52:29;10.30;72.00
7163;DHT22;3623;47.098;15.446;2023-02-01T13:55:13;10.10;72.70
7163;DHT22;3623;47.098;15.446;2023-02-01T13:57:43;9.90;75.00
7163;DHT22;3623;47.098;15.446;2023-02-01T14:00:24;9.70;75.80
7163;DHT22;3623;47.098;15.446;2023-02-01T14:03:14;9.60;76.70
7163;DHT22;3623;47.098;15.446;2023-02-01T14:06:05;9.60;77.10
7163;DHT22;3623;47.098;15.446;2023-02-01T14:08:44;9.50;77.20
7163;DHT22;3623;47.098;15.446;2023-02-01T14:11:32;9.20;77.80
7163;DHT22;3623;47.098;15.446;2023-02-01T14:14:40;9.20;78.40
7163;DHT22;3623;47.098;15.446;2023-02-01T14:23:22;9.20;79.90
7163;DHT22;3623;47.098;15.446;2023-02-01T14:26:10;9.20;80.50
7163;DHT22;3623;47.098;15.446;2023-02-01T14:28:54;9.20;80.80
7163;DHT22;3623;47.098;15.446;2023-02-01T14:31:47;9.10;81.00
7163;DHT22;3623;47.098;15.446;2023-02-01T14:34:21;8.90;81.80
7163;DHT22;3623;47.098;15.446;2023-02-01T14:36:54;8.80;81.90
7163;DHT22;3623;47.098;15.446;2023-02-01T14:39:36;8.70;82.00
7163;DHT22;3623;47.098;15.446;2023-02-01T14:42:14;8.60;82.00
7163;DHT22;3623;47.098;15.446;2023-02-01T14:44:45;8.60;82.70
7163;DHT22;3623;47.098;15.446;2023-02-01T14:47:34;8.60;82.70
7163;DHT22;3623;47.098;15.446;2023-02-01T14:50:27;8.40;83.00
7163;DHT22;3623;47.098;15.446;2023-02-01T14:53:14;8.40;83.20
7163;DHT22;3623;47.098;15.446;2023-02-01T14:55:44;8.30;82.50
7163;DHT22;3623;47.098;15.446;2023-02-01T14:58:18;8.30;82.60
7163;DHT22;3623;47.098;15.446;2023-02-01T15:00:52;8.20;82.60
7163;DHT22;3623;47.098;15.446;2023-02-01T15:03:34;8.10;83.20
7163;DHT22;3623;47.098;15.446;2023-02-01T15:06:03;8.00;82.10
7163;DHT22;3623;47.098;15.446;2023-02-01T15:08:35;8.00;81.10
7163;DHT22;3623;47.098;15.446;2023-02-01T15:11:08;8.00;81.60
7163;DHT22;3623;47.098;15.446;2023-02-01T15:13:38;7.90;81.50
7163;DHT22;3623;47.098;15.446;2023-02-01T15:16:09;7.90;82.90
7163;DHT22;3623;47.098;15.446;2023-02-01T15:18:39;7.90;81.70
7163;DHT22;3623;47.098;15.446;2023-02-01T15:21:15;7.90;81.50
7163;DHT22;3623;47.098;15.446;2023-02-01T15:23:42;7.90;82.30
7163;DHT22;3623;47.098;15.446;2023-02-01T15:26:20;7.90;80.90
7163;DHT22;3623;47.098;15.446;2023-02-01T15:28:50;7.90;82.00
7163;DHT22;3623;47.098;15.446;2023-02-01T15:31:32;7.80;82.30
7163;DHT22;3623;47.098;15.446;2023-02-01T15:34:00;7.80;82.00
7163;DHT22;3623;47.098;15.446;2023-02-01T15:36:27;7.70;83.00
7163;DHT22;3623;47.098;15.446;2023-02-01T15:39:20;7.70;82.30
7163;DHT22;3623;47.098;15.446;2023-02-01T15:41:54;7.60;83.30
7163;DHT22;3623;47.098;15.446;2023-02-01T15:44:31;7.50;83.80
7163;DHT22;3623;47.098;15.446;2023-02-01T15:47:06;7.40;82.70
7163;DHT22;3623;47.098;15.446;2023-02-01T15:49:39;7.40;83.50
7163;DHT22;3623;47.098;15.446;2023-02-01T15:52:22;7.30;83.40
7163;DHT22;3623;47.098;15.446;2023-02-01T15:54:52;7.30;82.50
7163;DHT22;3623;47.098;15.446;2023-02-01T15:57:23;7.30;83.20
7163;DHT22;3623;47.098;15.446;2023-02-01T15:59:57;7.10;83.50
7163;DHT22;3623;47.098;15.446;2023-02-01T16:02:32;7.10;83.10
7163;DHT22;3623;47.098;15.446;2023-02-01T16:05:01;7.10;83.50
7163;DHT22;3623;47.098;15.446;2023-02-01T16:07:31;7.10;83.30
7163;DHT22;3623;47.098;15.446;2023-02-01T16:10:00;7.10;83.50
7163;DHT22;3623;47.098;15.446;2023-02-01T16:12:33;6.90;83.60
7163;DHT22;3623;47.098;15.446;2023-02-01T16:15:02;6.90;83.40
7163;DHT22;3623;47.098;15.446;2023-02-01T16:17:29;6.90;83.50
7163;DHT22;3623;47.098;15.446;2023-02-01T16:19:56;6.80;83.40
7163;DHT22;3623;47.098;15.446;2023-02-01T16:22:25;6.80;83.40
7163;DHT22;3623;47.098;15.446;2023-02-01T16:24:52;6.80;83.40
7163;DHT22;3623;47.098;15.446;2023-02-01T16:27:19;6.70;83.80
7163;DHT22;3623;47.098;15.446;2023-02-01T16:29:48;6.60;83.90
7163;DHT22;3623;47.098;15.446;2023-02-01T16:32:17;6.50;84.50
7163;DHT22;3623;47.098;15.446;2023-02-01T16:34:45;6.50;83.80
7163;DHT22;3623;47.098;15.446;2023-02-01T16:37:14;6.50;83.90
7163;DHT22;3623;47.098;15.446;2023-02-01T16:39:43;6.50;84.40
7163;DHT22;3623;47.098;15.446;2023-02-01T16:42:11;6.40;84.30
7163;DHT22;3623;47.098;15.446;2023-02-01T16:44:39;6.40;84.70
7163;DHT22;3623;47.098;15.446;2023-02-01T16:47:12;6.40;84.70
7163;DHT22;3623;47.098;15.446;2023-02-01T16:49:41;6.40;84.80
7163;DHT22;3623;47.098;15.446;2023-02-01T16:52:14;6.40;84.90
7163;DHT22;3623;47.098;15.446;2023-02-01T16:54:43;6.30;85.60
7163;DHT22;3623;47.098;15.446;2023-02-01T16:57:14;6.30;85.10
7163;DHT22;3623;47.098;15.446;2023-02-01T16:59:42;6.30;85.50
7163;DHT22;3623;47.098;15.446;2023-02-01T17:02:11;6.40;85.50
7163;DHT22;3623;47.098;15.446;2023-02-01T17:04:39;6.30;85.00